US-0143 weather

Gross Private Airport
Mc Allen, Texas, United States

Public forecast

Using degrees Fahrenheit for public forecast. Weather courtesy of forecast.io.

Closest aviation weather report (METAR) to Gross Private Airport

Closest report is Mc Allen Miller International Airport, 5.3 nm (9.8 km) SSE. Retrieved 2019/10/22 16:53 UTC (34 minutes ago):

KMFE 221653Z 05010KT 10SM CLR 29/17 A3014 RMK AO2 SLP204 T02890167

Closest aviation forecast (TAF) to Gross Private Airport

Closest forecast is Mc Allen Miller International Airport, 5.3 nm (9.8 km) SSE. Retrieved 2019/10/22 12:27 UTC (5 hours ago):

TAF KMFE 221124Z 2212/2312 03006KT P6SM SCT250 FM221700 06012G19KT P6SM FEW250 FM230000 09007KT P6SM SKC